sensor_id;sensor_type;location;lat;lon;timestamp;pressure;altitude;pressure_sealevel;temperature;humidity
79461;BME280;68929;42.666;23.324;2023-08-12T00:02:08;95113.06;;;18.56;nan
79461;BME280;68929;42.666;23.324;2023-08-12T00:04:34;95101.19;;;18.74;nan
79461;BME280;68929;42.666;23.324;2023-08-12T00:06:59;95119.75;;;18.59;nan
79461;BME280;68929;42.666;23.324;2023-08-12T00:09:24;95120.28;;;18.82;nan
79461;BME280;68929;42.666;23.324;2023-08-12T00:11:50;95120.47;;;18.71;nan
79461;BME280;68929;42.666;23.324;2023-08-12T00:14:15;95116.59;;;18.62;nan
79461;BME280;68929;42.666;23.324;2023-08-12T00:16:41;95097.38;;;18.65;nan
79461;BME280;68929;42.666;23.324;2023-08-12T00:19:06;95107.09;;;18.76;nan
79461;BME280;68929;42.666;23.324;2023-08-12T00:21:33;95101.44;;;18.99;nan
79461;BME280;68929;42.666;23.324;2023-08-12T00:23:58;95109.00;;;19.07;nan
79461;BME280;68929;42.666;23.324;2023-08-12T00:26:24;95086.78;;;18.80;nan
79461;BME280;68929;42.666;23.324;2023-08-12T00:28:49;95101.34;;;18.89;nan
79461;BME280;68929;42.666;23.324;2023-08-12T00:31:15;95112.13;;;18.94;nan
79461;BME280;68929;42.666;23.324;2023-08-12T00:33:40;95101.44;;;18.72;nan
79461;BME280;68929;42.666;23.324;2023-08-12T00:36:06;95111.56;;;18.92;nan
79461;BME280;68929;42.666;23.324;2023-08-12T00:38:32;95093.09;;;18.95;nan
79461;BME280;68929;42.666;23.324;2023-08-12T00:40:57;95104.66;;;19.01;nan
79461;BME280;68929;42.666;23.324;2023-08-12T00:43:23;95110.56;;;19.03;nan
79461;BME280;68929;42.666;23.324;2023-08-12T00:45:48;95090.88;;;18.87;nan
79461;BME280;68929;42.666;23.324;2023-08-12T00:48:15;95095.53;;;18.97;nan
79461;BME280;68929;42.666;23.324;2023-08-12T00:50:42;95086.97;;;19.00;nan
79461;BME280;68929;42.666;23.324;2023-08-12T00:53:08;95093.84;;;18.91;nan
79461;BME280;68929;42.666;23.324;2023-08-12T00:55:34;95090.47;;;18.74;nan
79461;BME280;68929;42.666;23.324;2023-08-12T00:58:00;95104.97;;;18.78;nan
79461;BME280;68929;42.666;23.324;2023-08-12T01:00:25;95103.97;;;18.84;nan
79461;BME280;68929;42.666;23.324;2023-08-12T01:02:51;95103.69;;;19.12;nan
79461;BME280;68929;42.666;23.324;2023-08-12T01:05:17;95100.59;;;19.25;nan
79461;BME280;68929;42.666;23.324;2023-08-12T01:07:52;95097.88;;;19.20;nan
79461;BME280;68929;42.666;23.324;2023-08-12T01:10:19;95077.22;;;18.89;nan
79461;BME280;68929;42.666;23.324;2023-08-12T01:13:02;95074.84;;;18.92;nan
79461;BME280;68929;42.666;23.324;2023-08-12T01:15:31;95101.66;;;19.24;nan
79461;BME280;68929;42.666;23.324;2023-08-12T01:18:02;95091.09;;;19.39;nan
79461;BME280;68929;42.666;23.324;2023-08-12T01:20:30;95088.13;;;19.41;nan
79461;BME280;68929;42.666;23.324;2023-08-12T01:23:16;95094.72;;;19.28;nan
79461;BME280;68929;42.666;23.324;2023-08-12T01:25:42;95083.91;;;19.18;nan
79461;BME280;68929;42.666;23.324;2023-08-12T01:28:13;95082.88;;;19.19;nan
79461;BME280;68929;42.666;23.324;2023-08-12T01:33:55;95090.84;;;19.14;nan
79461;BME280;68929;42.666;23.324;2023-08-12T01:36:24;95078.41;;;19.03;nan
79461;BME280;68929;42.666;23.324;2023-08-12T01:38:54;95059.22;;;18.79;nan
79461;BME280;68929;42.666;23.324;2023-08-12T01:41:22;95090.53;;;18.79;nan
79461;BME280;68929;42.666;23.324;2023-08-12T01:43:48;95070.06;;;18.68;nan
79461;BME280;68929;42.666;23.324;2023-08-12T01:46:13;95076.97;;;18.90;nan
79461;BME280;68929;42.666;23.324;2023-08-12T01:48:39;95063.06;;;18.62;nan
79461;BME280;68929;42.666;23.324;2023-08-12T01:51:04;95052.03;;;18.58;nan
79461;BME280;68929;42.666;23.324;2023-08-12T01:53:30;95086.78;;;18.80;nan
79461;BME280;68929;42.666;23.324;2023-08-12T01:55:55;95086.94;;;18.95;nan
79461;BME280;68929;42.666;23.324;2023-08-12T01:58:21;95088.41;;;18.81;nan
79461;BME280;68929;42.666;23.324;2023-08-12T02:00:46;95080.94;;;18.83;nan
79461;BME280;68929;42.666;23.324;2023-08-12T02:03:11;95087.78;;;19.00;nan
79461;BME280;68929;42.666;23.324;2023-08-12T02:05:37;95082.84;;;18.87;nan
79461;BME280;68929;42.666;23.324;2023-08-12T02:08:04;95072.97;;;18.93;nan
79461;BME280;68929;42.666;23.324;2023-08-12T02:10:29;95100.53;;;19.20;nan
79461;BME280;68929;42.666;23.324;2023-08-12T02:12:54;95077.69;;;18.81;nan
79461;BME280;68929;42.666;23.324;2023-08-12T02:15:20;95063.22;;;18.50;nan
79461;BME280;68929;42.666;23.324;2023-08-12T02:17:45;95086.78;;;18.80;nan
79461;BME280;68929;42.666;23.324;2023-08-12T02:20:11;95073.03;;;18.45;nan
79461;BME280;68929;42.666;23.324;2023-08-12T02:22:36;95087.09;;;18.57;nan
79461;BME280;68929;42.666;23.324;2023-08-12T02:25:02;95081.22;;;18.60;nan
79461;BME280;68929;42.666;23.324;2023-08-12T02:27:27;95086.28;;;18.56;nan
79461;BME280;68929;42.666;23.324;2023-08-12T02:29:52;95078.09;;;18.68;nan
79461;BME280;68929;42.666;23.324;2023-08-12T02:32:18;95089.06;;;18.93;nan
79461;BME280;68929;42.666;23.324;2023-08-12T02:34:43;95071.31;;;18.87;nan
79461;BME280;68929;42.666;23.324;2023-08-12T02:37:09;95075.47;;;18.73;nan
79461;BME280;68929;42.666;23.324;2023-08-12T02:39:35;95083.97;;;18.65;nan
79461;BME280;68929;42.666;23.324;2023-08-12T02:42:00;95083.47;;;18.68;nan
79461;BME280;68929;42.666;23.324;2023-08-12T02:44:26;95091.72;;;18.93;nan
79461;BME280;68929;42.666;23.324;2023-08-12T02:46:51;95080.00;;;18.99;nan
79461;BME280;68929;42.666;23.324;2023-08-12T02:49:16;95088.50;;;18.91;nan
79461;BME280;68929;42.666;23.324;2023-08-12T02:51:42;95093.66;;;18.97;nan
79461;BME280;68929;42.666;23.324;2023-08-12T02:54:07;95099.84;;;19.03;nan
79461;BME280;68929;42.666;23.324;2023-08-12T02:56:32;95097.84;;;18.88;nan
79461;BME280;68929;42.666;23.324;2023-08-12T02:58:59;95078.91;;;18.68;nan
79461;BME280;68929;42.666;23.324;2023-08-12T03:01:24;95106.97;;;18.61;nan
79461;BME280;68929;42.666;23.324;2023-08-12T03:03:50;95109.00;;;18.75;nan
79461;BME280;68929;42.666;23.324;2023-08-12T03:06:15;95095.25;;;18.67;nan
79461;BME280;68929;42.666;23.324;2023-08-12T03:08:41;95083.25;;;18.48;nan
79461;BME280;68929;42.666;23.324;2023-08-12T03:11:06;95107.09;;;18.76;nan
79461;BME280;68929;42.666;23.324;2023-08-12T03:13:31;95103.66;;;18.54;nan
79461;BME280;68929;42.666;23.324;2023-08-12T03:15:57;95093.63;;;18.66;nan
79461;BME280;68929;42.666;23.324;2023-08-12T03:18:22;95096.72;;;18.79;nan
79461;BME280;68929;42.666;23.324;2023-08-12T03:20:48;95110.78;;;18.96;nan
79461;BME280;68929;42.666;23.324;2023-08-12T03:23:14;95097.50;;;18.80;nan
79461;BME280;68929;42.666;23.324;2023-08-12T03:25:39;95093.84;;;18.91;nan
79461;BME280;68929;42.666;23.324;2023-08-12T03:28:05;95101.13;;;18.95;nan
79461;BME280;68929;42.666;23.324;2023-08-12T03:30:30;95096.91;;;18.73;nan
79461;BME280;68929;42.666;23.324;2023-08-12T03:32:56;95111.84;;;18.95;nan
79461;BME280;68929;42.666;23.324;2023-08-12T03:35:22;95090.25;;;18.75;nan
79461;BME280;68929;42.666;23.324;2023-08-12T03:37:47;95097.38;;;18.65;nan
79461;BME280;68929;42.666;23.324;2023-08-12T03:40:21;95099.31;;;18.74;nan
79461;BME280;68929;42.666;23.324;2023-08-12T03:42:46;95097.91;;;18.67;nan
79461;BME280;68929;42.666;23.324;2023-08-12T03:45:12;95100.16;;;18.80;nan
79461;BME280;68929;42.666;23.324;2023-08-12T03:47:37;95110.53;;;18.98;nan
79461;BME280;68929;42.666;23.324;2023-08-12T03:50:03;95121.47;;;18.91;nan
79461;BME280;68929;42.666;23.324;2023-08-12T03:52:28;95102.84;;;19.06;nan
79461;BME280;68929;42.666;23.324;2023-08-12T03:54:53;95123.47;;;19.06;nan
79461;BME280;68929;42.666;23.324;2023-08-12T03:57:19;95122.47;;;19.12;nan
79461;BME280;68929;42.666;23.324;2023-08-12T03:59:44;95120.63;;;19.17;nan
79461;BME280;68929;42.666;23.324;2023-08-12T04:02:10;95106.53;;;19.32;nan
79461;BME280;68929;42.666;23.324;2023-08-12T04:04:35;95112.09;;;19.52;nan
79461;BME280;68929;42.666;23.324;2023-08-12T04:07:01;95113.75;;;19.63;nan
79461;BME280;68929;42.666;23.324;2023-08-12T04:09:26;95097.09;;;19.56;nan
79461;BME280;68929;42.666;23.324;2023-08-12T04:11:52;95107.16;;;19.39;nan
79461;BME280;68929;42.666;23.324;2023-08-12T04:14:17;95128.91;;;19.16;nan
79461;BME280;68929;42.666;23.324;2023-08-12T04:16:42;95115.78;;;18.88;nan
79461;BME280;68929;42.666;23.324;2023-08-12T04:19:08;95111.75;;;18.85;nan
79461;BME280;68929;42.666;23.324;2023-08-12T04:21:33;95129.41;;;19.13;nan
79461;BME280;68929;42.666;23.324;2023-08-12T04:23:58;95123.59;;;19.48;nan
79461;BME280;68929;42.666;23.324;2023-08-12T04:26:24;95129.97;;;19.78;nan
79461;BME280;68929;42.666;23.324;2023-08-12T04:28:49;95120.81;;;19.74;nan
79461;BME280;68929;42.666;23.324;2023-08-12T04:31:15;95112.81;;;19.79;nan
79461;BME280;68929;42.666;23.324;2023-08-12T04:33:40;95129.03;;;20.00;nan
79461;BME280;68929;42.666;23.324;2023-08-12T04:36:06;95116.66;;;19.99;nan
79461;BME280;68929;42.666;23.324;2023-08-12T04:38:31;95119.50;;;20.24;nan
79461;BME280;68929;42.666;23.324;2023-08-12T04:40:57;95116.31;;;20.32;nan
79461;BME280;68929;42.666;23.324;2023-08-12T04:43:22;95131.41;;;20.38;nan
79461;BME280;68929;42.666;23.324;2023-08-12T04:45:48;95132.97;;;20.29;nan
79461;BME280;68929;42.666;23.324;2023-08-12T04:48:14;95133.25;;;19.85;nan
79461;BME280;68929;42.666;23.324;2023-08-12T04:50:40;95119.59;;;19.24;nan
79461;BME280;68929;42.666;23.324;2023-08-12T04:53:05;95122.38;;;19.02;nan
79461;BME280;68929;42.666;23.324;2023-08-12T04:55:31;95115.84;;;18.93;nan
79461;BME280;68929;42.666;23.324;2023-08-12T04:57:57;95135.59;;;18.87;nan
79461;BME280;68929;42.666;23.324;2023-08-12T05:00:23;95108.50;;;19.10;nan
79461;BME280;68929;42.666;23.324;2023-08-12T05:02:48;95120.16;;;18.94;nan
79461;BME280;68929;42.666;23.324;2023-08-12T05:05:14;95133.78;;;18.92;nan
79461;BME280;68929;42.666;23.324;2023-08-12T05:07:40;95115.66;;;18.29;nan
79461;BME280;68929;42.666;23.324;2023-08-12T05:10:05;95119.16;;;18.30;nan
79461;BME280;68929;42.666;23.324;2023-08-12T05:12:31;95129.91;;;18.13;nan
79461;BME280;68929;42.666;23.324;2023-08-12T05:14:56;95134.56;;;18.01;nan
79461;BME280;68929;42.666;23.324;2023-08-12T05:17:22;95135.69;;;18.44;nan
79461;BME280;68929;42.666;23.324;2023-08-12T05:19:47;95116.59;;;18.62;nan
79461;BME280;68929;42.666;23.324;2023-08-12T05:22:13;95127.63;;;18.92;nan
79461;BME280;68929;42.666;23.324;2023-08-12T05:24:38;95140.56;;;19.00;nan
79461;BME280;68929;42.666;23.324;2023-08-12T05:27:04;95116.81;;;19.08;nan
79461;BME280;68929;42.666;23.324;2023-08-12T05:29:30;95148.97;;;19.40;nan
79461;BME280;68929;42.666;23.324;2023-08-12T05:31:55;95151.09;;;19.38;nan
79461;BME280;68929;42.666;23.324;2023-08-12T05:34:21;95130.09;;;19.25;nan
79461;BME280;68929;42.666;23.324;2023-08-12T05:36:46;95161.47;;;19.61;nan
79461;BME280;68929;42.666;23.324;2023-08-12T05:39:11;95148.84;;;19.25;nan
79461;BME280;68929;42.666;23.324;2023-08-12T05:41:37;95157.31;;;19.17;nan
79461;BME280;68929;42.666;23.324;2023-08-12T05:44:03;95144.59;;;18.76;nan
79461;BME280;68929;42.666;23.324;2023-08-12T05:46:29;95148.84;;;18.72;nan
79461;BME280;68929;42.666;23.324;2023-08-12T05:48:54;95146.88;;;18.89;nan
79461;BME280;68929;42.666;23.324;2023-08-12T05:51:20;95143.25;;;19.00;nan
79461;BME280;68929;42.666;23.324;2023-08-12T05:53:45;95152.06;;;18.74;nan
79461;BME280;68929;42.666;23.324;2023-08-12T05:56:11;95143.38;;;18.62;nan
79461;BME280;68929;42.666;23.324;2023-08-12T05:58:36;95134.34;;;18.24;nan
79461;BME280;68929;42.666;23.324;2023-08-12T06:01:02;95128.66;;;18.43;nan
79461;BME280;68929;42.666;23.324;2023-08-12T06:03:27;95148.34;;;18.75;nan
79461;BME280;68929;42.666;23.324;2023-08-12T06:05:52;95133.75;;;18.61;nan
79461;BME280;68929;42.666;23.324;2023-08-12T06:08:18;95111.25;;;18.62;nan
79461;BME280;68929;42.666;23.324;2023-08-12T06:10:47;95137.63;;;19.01;nan
79461;BME280;68929;42.666;23.324;2023-08-12T06:13:13;95137.22;;;18.88;nan
79461;BME280;68929;42.666;23.324;2023-08-12T06:15:38;95134.50;;;18.83;nan
79461;BME280;68929;42.666;23.324;2023-08-12T06:18:04;95134.53;;;18.88;nan
79461;BME280;68929;42.666;23.324;2023-08-12T06:20:29;95125.75;;;18.92;nan
79461;BME280;68929;42.666;23.324;2023-08-12T06:23:03;95117.00;;;19.02;nan
79461;BME280;68929;42.666;23.324;2023-08-12T06:25:28;95101.56;;;19.14;nan
79461;BME280;68929;42.666;23.324;2023-08-12T06:27:54;95131.97;;;19.56;nan
79461;BME280;68929;42.666;23.324;2023-08-12T06:30:19;95130.94;;;19.67;nan
79461;BME280;68929;42.666;23.324;2023-08-12T06:32:44;95113.06;;;19.78;nan
79461;BME280;68929;42.666;23.324;2023-08-12T06:35:10;95134.50;;;20.20;nan
79461;BME280;68929;42.666;23.324;2023-08-12T06:37:35;95115.75;;;20.25;nan
79461;BME280;68929;42.666;23.324;2023-08-12T06:40:01;95125.25;;;20.47;nan
79461;BME280;68929;42.666;23.324;2023-08-12T06:42:26;95123.44;;;20.63;nan
79461;BME280;68929;42.666;23.324;2023-08-12T06:44:57;95104.41;;;20.90;nan
79461;BME280;68929;42.666;23.324;2023-08-12T06:47:23;95120.28;;;21.01;nan
79461;BME280;68929;42.666;23.324;2023-08-12T06:49:48;95114.41;;;21.24;nan
79461;BME280;68929;42.666;23.324;2023-08-12T06:52:14;95093.47;;;21.31;nan
79461;BME280;68929;42.666;23.324;2023-08-12T06:54:39;95093.97;;;21.18;nan
79461;BME280;68929;42.666;23.324;2023-08-12T06:57:05;95114.41;;;21.44;nan
79461;BME280;68929;42.666;23.324;2023-08-12T06:59:30;95101.50;;;21.57;nan
79461;BME280;68929;42.666;23.324;2023-08-12T07:01:56;95098.25;;;21.70;nan
79461;BME280;68929;42.666;23.324;2023-08-12T07:04:21;95116.81;;;21.86;nan
79461;BME280;68929;42.666;23.324;2023-08-12T07:06:47;95091.25;;;21.89;nan
79461;BME280;68929;42.666;23.324;2023-08-12T07:09:13;95096.88;;;21.97;nan
79461;BME280;68929;42.666;23.324;2023-08-12T07:11:38;95092.59;;;21.91;nan
79461;BME280;68929;42.666;23.324;2023-08-12T07:14:04;95111.13;;;22.03;nan
79461;BME280;68929;42.666;23.324;2023-08-12T07:16:29;95107.91;;;22.11;nan
79461;BME280;68929;42.666;23.324;2023-08-12T07:18:55;95099.28;;;22.09;nan
79461;BME280;68929;42.666;23.324;2023-08-12T07:21:20;95116.34;;;22.53;nan
79461;BME280;68929;42.666;23.324;2023-08-12T07:23:45;95097.22;;;22.55;nan
79461;BME280;68929;42.666;23.324;2023-08-12T07:26:11;95100.06;;;22.83;nan
79461;BME280;68929;42.666;23.324;2023-08-12T07:28:36;95081.19;;;22.83;nan
79461;BME280;68929;42.666;23.324;2023-08-12T07:31:02;95094.59;;;22.93;nan
79461;BME280;68929;42.666;23.324;2023-08-12T07:33:27;95087.00;;;23.00;nan
79461;BME280;68929;42.666;23.324;2023-08-12T07:35:53;95104.06;;;23.30;nan
79461;BME280;68929;42.666;23.324;2023-08-12T07:38:18;95105.38;;;23.37;nan
79461;BME280;68929;42.666;23.324;2023-08-12T07:40:44;95093.28;;;23.30;nan
79461;BME280;68929;42.666;23.324;2023-08-12T07:43:09;95102.91;;;23.41;nan
79461;BME280;68929;42.666;23.324;2023-08-12T07:45:35;95100.50;;;23.39;nan
79461;BME280;68929;42.666;23.324;2023-08-12T07:48:00;95104.47;;;23.47;nan
79461;BME280;68929;42.666;23.324;2023-08-12T07:50:25;95090.09;;;23.85;nan
79461;BME280;68929;42.666;23.324;2023-08-12T07:52:51;95084.81;;;24.04;nan
79461;BME280;68929;42.666;23.324;2023-08-12T07:55:18;95077.59;;;23.94;nan
79461;BME280;68929;42.666;23.324;2023-08-12T07:57:44;95077.19;;;23.82;nan
79461;BME280;68929;42.666;23.324;2023-08-12T08:00:10;95063.56;;;23.92;nan
79461;BME280;68929;42.666;23.324;2023-08-12T08:02:37;95082.94;;;24.28;nan
79461;BME280;68929;42.666;23.324;2023-08-12T08:05:03;95062.56;;;24.35;nan
79461;BME280;68929;42.666;23.324;2023-08-12T08:07:28;95077.88;;;24.21;nan
79461;BME280;68929;42.666;23.324;2023-08-12T08:09:54;95085.53;;;24.56;nan
79461;BME280;68929;42.666;23.324;2023-08-12T08:12:19;95072.28;;;24.79;nan
79461;BME280;68929;42.666;23.324;2023-08-12T08:14:54;95086.16;;;25.28;nan
79461;BME280;68929;42.666;23.324;2023-08-12T08:17:19;95073.81;;;25.22;nan
79461;BME280;68929;42.666;23.324;2023-08-12T08:19:44;95079.00;;;25.00;nan
79461;BME280;68929;42.666;23.324;2023-08-12T08:22:10;95081.81;;;24.95;nan
79461;BME280;68929;42.666;23.324;2023-08-12T08:24:35;95063.09;;;24.80;nan
79461;BME280;68929;42.666;23.324;2023-08-12T08:27:01;95088.78;;;25.33;nan
79461;BME280;68929;42.666;23.324;2023-08-12T08:29:30;95086.31;;;25.18;nan
79461;BME280;68929;42.666;23.324;2023-08-12T08:31:55;95070.81;;;25.42;nan
79461;BME280;68929;42.666;23.324;2023-08-12T08:34:21;95054.38;;;25.20;nan
79461;BME280;68929;42.666;23.324;2023-08-12T08:36:46;95063.13;;;25.49;nan
79461;BME280;68929;42.666;23.324;2023-08-12T08:39:12;95074.03;;;25.76;nan
79461;BME280;68929;42.666;23.324;2023-08-12T08:41:39;95066.22;;;26.02;nan
79461;BME280;68929;42.666;23.324;2023-08-12T08:44:08;95063.41;;;25.93;nan
79461;BME280;68929;42.666;23.324;2023-08-12T08:46:34;95061.56;;;26.07;nan
79461;BME280;68929;42.666;23.324;2023-08-12T08:49:00;95059.47;;;25.99;nan
79461;BME280;68929;42.666;23.324;2023-08-12T08:51:31;95051.72;;;26.39;nan
79461;BME280;68929;42.666;23.324;2023-08-12T08:53:57;95054.94;;;26.41;nan
79461;BME280;68929;42.666;23.324;2023-08-12T08:56:23;95050.09;;;26.38;nan
79461;BME280;68929;42.666;23.324;2023-08-12T08:58:49;95051.41;;;26.27;nan
79461;BME280;68929;42.666;23.324;2023-08-12T09:01:18;95040.69;;;26.22;nan
79461;BME280;68929;42.666;23.324;2023-08-12T09:03:45;95035.44;;;26.25;nan
79461;BME280;68929;42.666;23.324;2023-08-12T09:06:11;95046.66;;;26.59;nan
79461;BME280;68929;42.666;23.324;2023-08-12T09:08:38;95023.59;;;26.48;nan
79461;BME280;68929;42.666;23.324;2023-08-12T09:11:06;95037.00;;;26.67;nan
79461;BME280;68929;42.666;23.324;2023-08-12T09:13:31;95044.47;;;26.61;nan
79461;BME280;68929;42.666;23.324;2023-08-12T09:15:56;95041.41;;;26.90;nan
79461;BME280;68929;42.666;23.324;2023-08-12T09:18:22;95043.88;;;27.00;nan
79461;BME280;68929;42.666;23.324;2023-08-12T09:20:50;95031.25;;;27.18;nan
79461;BME280;68929;42.666;23.324;2023-08-12T09:23:16;95028.19;;;27.55;nan
79461;BME280;68929;42.666;23.324;2023-08-12T09:25:43;95031.50;;;27.52;nan
79461;BME280;68929;42.666;23.324;2023-08-12T09:28:12;95006.41;;;27.77;nan
79461;BME280;68929;42.666;23.324;2023-08-12T09:30:38;95005.59;;;27.77;nan
79461;BME280;68929;42.666;23.324;2023-08-12T09:33:06;95032.34;;;28.14;nan
79461;BME280;68929;42.666;23.324;2023-08-12T09:35:40;95020.03;;;28.08;nan
79461;BME280;68929;42.666;23.324;2023-08-12T09:38:10;95018.66;;;28.36;nan
79461;BME280;68929;42.666;23.324;2023-08-12T09:40:37;95016.38;;;27.90;nan
79461;BME280;68929;42.666;23.324;2023-08-12T09:43:03;95007.81;;;27.66;nan
79461;BME280;68929;42.666;23.324;2023-08-12T09:45:30;94987.41;;;27.46;nan
79461;BME280;68929;42.666;23.324;2023-08-12T09:47:56;94992.09;;;27.54;nan
79461;BME280;68929;42.666;23.324;2023-08-12T09:50:22;95004.88;;;27.85;nan
79461;BME280;68929;42.666;23.324;2023-08-12T09:52:48;95008.75;;;27.61;nan
79461;BME280;68929;42.666;23.324;2023-08-12T09:55:16;95012.19;;;28.15;nan
79461;BME280;68929;42.666;23.324;2023-08-12T09:57:46;95004.78;;;28.55;nan
79461;BME280;68929;42.666;23.324;2023-08-12T10:00:13;94997.66;;;28.84;nan
79461;BME280;68929;42.666;23.324;2023-08-12T10:02:43;94997.00;;;29.04;nan
79461;BME280;68929;42.666;23.324;2023-08-12T10:05:11;94996.88;;;29.01;nan
79461;BME280;68929;42.666;23.324;2023-08-12T10:07:39;94995.72;;;29.45;nan
79461;BME280;68929;42.666;23.324;2023-08-12T10:10:05;94972.84;;;29.11;nan
79461;BME280;68929;42.666;23.324;2023-08-12T10:12:33;94982.00;;;29.15;nan
79461;BME280;68929;42.666;23.324;2023-08-12T10:15:00;94990.06;;;29.58;nan
79461;BME280;68929;42.666;23.324;2023-08-12T10:17:26;94990.19;;;30.54;nan
79461;BME280;68929;42.666;23.324;2023-08-12T10:19:56;94978.44;;;30.92;nan
79461;BME280;68929;42.666;23.324;2023-08-12T10:22:25;94975.03;;;30.95;nan
79461;BME280;68929;42.666;23.324;2023-08-12T10:24:51;94985.75;;;31.00;nan
79461;BME280;68929;42.666;23.324;2023-08-12T10:27:17;94975.06;;;31.07;nan
79461;BME280;68929;42.666;23.324;2023-08-12T10:29:43;94961.59;;;31.43;nan
79461;BME280;68929;42.666;23.324;2023-08-12T10:32:09;94954.03;;;31.73;nan
79461;BME280;68929;42.666;23.324;2023-08-12T10:34:34;94958.31;;;32.30;nan
79461;BME280;68929;42.666;23.324;2023-08-12T10:37:11;94976.09;;;32.37;nan
79461;BME280;68929;42.666;23.324;2023-08-12T10:39:39;94954.84;;;33.22;nan
79461;BME280;68929;42.666;23.324;2023-08-12T10:42:05;94960.00;;;33.94;nan
79461;BME280;68929;42.666;23.324;2023-08-12T10:44:49;94954.75;;;33.89;nan
79461;BME280;68929;42.666;23.324;2023-08-12T10:47:23;94961.19;;;34.09;nan
79461;BME280;68929;42.666;23.324;2023-08-12T10:49:49;94967.34;;;34.37;nan
79461;BME280;68929;42.666;23.324;2023-08-12T10:52:30;94951.06;;;35.52;nan
79461;BME280;68929;42.666;23.324;2023-08-12T10:57:47;94947.72;;;35.62;nan
79461;BME280;68929;42.666;23.324;2023-08-12T11:00:26;94942.53;;;35.18;nan
79461;BME280;68929;42.666;23.324;2023-08-12T11:02:56;94948.59;;;34.74;nan
79461;BME280;68929;42.666;23.324;2023-08-12T11:05:23;94939.16;;;34.71;nan
79461;BME280;68929;42.666;23.324;2023-08-12T11:07:59;94944.88;;;34.16;nan
79461;BME280;68929;42.666;23.324;2023-08-12T11:10:32;94916.63;;;35.19;nan
79461;BME280;68929;42.666;23.324;2023-08-12T11:12:58;94938.06;;;34.95;nan
79461;BME280;68929;42.666;23.324;2023-08-12T11:15:38;94928.19;;;35.09;nan
79461;BME280;68929;42.666;23.324;2023-08-12T11:18:12;94928.00;;;35.79;nan
79461;BME280;68929;42.666;23.324;2023-08-12T11:20:38;94924.19;;;36.84;nan
79461;BME280;68929;42.666;23.324;2023-08-12T11:23:05;94937.53;;;36.30;nan
79461;BME280;68929;42.666;23.324;2023-08-12T11:25:31;94932.91;;;36.60;nan
79461;BME280;68929;42.666;23.324;2023-08-12T11:28:02;94924.44;;;35.56;nan
79461;BME280;68929;42.666;23.324;2023-08-12T11:30:29;94911.22;;;33.29;nan
79461;BME280;68929;42.666;23.324;2023-08-12T11:32:55;94930.31;;;33.84;nan
79461;BME280;68929;42.666;23.324;2023-08-12T11:35:22;94920.03;;;32.30;nan
79461;BME280;68929;42.666;23.324;2023-08-12T11:37:53;94922.88;;;33.26;nan
79461;BME280;68929;42.666;23.324;2023-08-12T11:40:20;94916.75;;;34.69;nan
79461;BME280;68929;42.666;23.324;2023-08-12T11:42:48;94919.09;;;36.57;nan
79461;BME280;68929;42.666;23.324;2023-08-12T11:45:17;94921.19;;;38.36;nan
79461;BME280;68929;42.666;23.324;2023-08-12T11:47:43;94918.09;;;39.03;nan
79461;BME280;68929;42.666;23.324;2023-08-12T11:50:10;94903.34;;;36.83;nan
79461;BME280;68929;42.666;23.324;2023-08-12T11:52:36;94912.75;;;37.09;nan
79461;BME280;68929;42.666;23.324;2023-08-12T11:55:02;94915.69;;;38.40;nan
79461;BME280;68929;42.666;23.324;2023-08-12T11:57:28;94909.88;;;39.13;nan
79461;BME280;68929;42.666;23.324;2023-08-12T12:00:07;94910.00;;;39.56;nan
79461;BME280;68929;42.666;23.324;2023-08-12T12:02:41;94908.94;;;40.06;nan
79461;BME280;68929;42.666;23.324;2023-08-12T12:05:13;94907.75;;;40.00;nan
79461;BME280;68929;42.666;23.324;2023-08-12T12:07:41;94902.03;;;39.26;nan
79461;BME280;68929;42.666;23.324;2023-08-12T12:10:13;94908.00;;;36.79;nan
79461;BME280;68929;42.666;23.324;2023-08-12T12:12:40;94889.50;;;33.36;nan
79461;BME280;68929;42.666;23.324;2023-08-12T12:15:06;94911.03;;;31.94;nan
79461;BME280;68929;42.666;23.324;2023-08-12T12:17:32;94903.31;;;30.86;nan
79461;BME280;68929;42.666;23.324;2023-08-12T12:19:59;94903.34;;;30.36;nan
79461;BME280;68929;42.666;23.324;2023-08-12T12:22:29;94894.06;;;29.70;nan
79461;BME280;68929;42.666;23.324;2023-08-12T12:24:58;94895.78;;;29.83;nan
79461;BME280;68929;42.666;23.324;2023-08-12T12:27:24;94887.31;;;29.76;nan
79461;BME280;68929;42.666;23.324;2023-08-12T12:29:50;94880.25;;;29.75;nan
79461;BME280;68929;42.666;23.324;2023-08-12T12:32:18;94886.28;;;30.47;nan
79461;BME280;68929;42.666;23.324;2023-08-12T12:34:43;94893.22;;;32.36;nan
79461;BME280;68929;42.666;23.324;2023-08-12T12:37:09;94873.75;;;34.42;nan
79461;BME280;68929;42.666;23.324;2023-08-12T12:39:34;94864.94;;;35.25;nan
79461;BME280;68929;42.666;23.324;2023-08-12T12:42:00;94858.56;;;33.35;nan
79461;BME280;68929;42.666;23.324;2023-08-12T12:44:26;94857.38;;;32.93;nan
79461;BME280;68929;42.666;23.324;2023-08-12T12:46:52;94875.22;;;32.35;nan
79461;BME280;68929;42.666;23.324;2023-08-12T12:49:22;94854.06;;;33.27;nan
79461;BME280;68929;42.666;23.324;2023-08-12T12:51:49;94860.22;;;34.87;nan
79461;BME280;68929;42.666;23.324;2023-08-12T12:54:14;94877.38;;;34.46;nan
79461;BME280;68929;42.666;23.324;2023-08-12T12:56:40;94868.50;;;35.06;nan
79461;BME280;68929;42.666;23.324;2023-08-12T12:59:05;94860.00;;;34.07;nan
79461;BME280;68929;42.666;23.324;2023-08-12T13:01:31;94862.38;;;31.87;nan
79461;BME280;68929;42.666;23.324;2023-08-12T13:03:57;94863.53;;;30.43;nan
79461;BME280;68929;42.666;23.324;2023-08-12T13:06:22;94863.16;;;29.19;nan
79461;BME280;68929;42.666;23.324;2023-08-12T13:08:47;94840.03;;;28.54;nan
79461;BME280;68929;42.666;23.324;2023-08-12T13:11:13;94847.09;;;27.73;nan
79461;BME280;68929;42.666;23.324;2023-08-12T13:13:38;94857.13;;;27.55;nan